sensor_id;sensor_type;location;lat;lon;timestamp;pressure;altitude;pressure_sealevel;temperature;humidity
10145;BME280;5113;41.822;23.564;2023-02-19T00:01:09;-11018.69;;;3.05;100.00
10145;BME280;5113;41.822;23.564;2023-02-19T00:04:17;-11012.53;;;2.83;100.00
10145;BME280;5113;41.822;23.564;2023-02-19T00:07:24;-11000.03;;;2.38;100.00
10145;BME280;5113;41.822;23.564;2023-02-19T00:10:30;-10995.13;;;2.20;100.00
10145;BME280;5113;41.822;23.564;2023-02-19T00:13:39;-11007.19;;;2.63;100.00
10145;BME280;5113;41.822;23.564;2023-02-19T00:16:46;-11004.09;;;2.52;100.00
10145;BME280;5113;41.822;23.564;2023-02-19T00:19:53;-11007.75;;;2.65;100.00
10145;BME280;5113;41.822;23.564;2023-02-19T00:23:00;-10997.94;;;2.30;100.00
10145;BME280;5113;41.822;23.564;2023-02-19T00:26:08;-10995.13;;;2.20;100.00
10145;BME280;5113;41.822;23.564;2023-02-19T00:29:23;-10993.03;;;2.12;100.00
10145;BME280;5113;41.822;23.564;2023-02-19T00:32:30;-11000.75;;;2.40;100.00
10145;BME280;5113;41.822;23.564;2023-02-19T00:35:36;-11007.19;;;2.63;100.00
10145;BME280;5113;41.822;23.564;2023-02-19T00:38:43;-10990.66;;;2.04;100.00
10145;BME280;5113;41.822;23.564;2023-02-19T00:41:50;-10987.16;;;1.91;100.00
10145;BME280;5113;41.822;23.564;2023-02-19T00:44:58;-10973.56;;;1.42;100.00
10145;BME280;5113;41.822;23.564;2023-02-19T00:48:04;-10988.25;;;1.95;100.00
10145;BME280;5113;41.822;23.564;2023-02-19T00:51:11;-10992.75;;;2.11;100.00
10145;BME280;5113;41.822;23.564;2023-02-19T00:54:17;-10979.16;;;1.62;100.00
10145;BME280;5113;41.822;23.564;2023-02-19T00:57:24;-10992.75;;;2.11;100.00
10145;BME280;5113;41.822;23.564;2023-02-19T01:00:32;-10986.03;;;1.87;100.00
10145;BME280;5113;41.822;23.564;2023-02-19T01:03:39;-10999.34;;;2.35;100.00
10145;BME280;5113;41.822;23.564;2023-02-19T01:06:45;-10995.13;;;2.20;100.00
10145;BME280;5113;41.822;23.564;2023-02-19T01:09:52;-10992.34;;;2.10;100.00
10145;BME280;5113;41.822;23.564;2023-02-19T01:12:59;-11000.88;;;2.41;100.00
10145;BME280;5113;41.822;23.564;2023-02-19T01:16:09;-10992.34;;;2.10;100.00
10145;BME280;5113;41.822;23.564;2023-02-19T01:19:16;-10989.53;;;1.99;100.00
10145;BME280;5113;41.822;23.564;2023-02-19T01:22:22;-10974.25;;;1.44;100.00
10145;BME280;5113;41.822;23.564;2023-02-19T01:25:29;-10990.09;;;2.02;100.00
10145;BME280;5113;41.822;23.564;2023-02-19T01:28:35;-10979.16;;;1.62;100.00
10145;BME280;5113;41.822;23.564;2023-02-19T01:31:43;-10996.13;;;2.23;100.00
10145;BME280;5113;41.822;23.564;2023-02-19T01:34:50;-10973.81;;;1.43;100.00
10145;BME280;5113;41.822;23.564;2023-02-19T01:37:56;-10957.56;;;0.84;100.00
10145;BME280;5113;41.822;23.564;2023-02-19T01:41:04;-10975.94;;;1.50;100.00
10145;BME280;5113;41.822;23.564;2023-02-19T01:48:07;-10979.84;;;1.64;100.00
10145;BME280;5113;41.822;23.564;2023-02-19T01:51:17;-10980.13;;;1.65;100.00
10145;BME280;5113;41.822;23.564;2023-02-19T01:54:27;-10980.00;;;1.65;100.00
10145;BME280;5113;41.822;23.564;2023-02-19T01:57:39;-10980.28;;;1.66;100.00
10145;BME280;5113;41.822;23.564;2023-02-19T02:00:46;-10983.06;;;1.76;100.00
10145;BME280;5113;41.822;23.564;2023-02-19T02:03:54;-10981.13;;;1.69;100.00
10145;BME280;5113;41.822;23.564;2023-02-19T02:07:02;-10976.06;;;1.51;100.00
10145;BME280;5113;41.822;23.564;2023-02-19T02:10:31;-10983.63;;;1.78;100.00
10145;BME280;5113;41.822;23.564;2023-02-19T02:13:38;-10981.53;;;1.71;100.00
10145;BME280;5113;41.822;23.564;2023-02-19T02:16:54;-10981.13;;;1.69;100.00
10145;BME280;5113;41.822;23.564;2023-02-19T02:20:15;-10949.16;;;0.53;100.00
10145;BME280;5113;41.822;23.564;2023-02-19T02:23:43;-10950.16;;;0.57;100.00
10145;BME280;5113;41.822;23.564;2023-02-19T02:27:07;-10981.97;;;1.72;100.00
10145;BME280;5113;41.822;23.564;2023-02-19T02:30:40;-10974.38;;;1.45;100.00
10145;BME280;5113;41.822;23.564;2023-02-19T02:33:54;-10986.72;;;1.89;100.00
10145;BME280;5113;41.822;23.564;2023-02-19T02:37:03;-10985.47;;;1.85;100.00
10145;BME280;5113;41.822;23.564;2023-02-19T02:40:11;-10986.16;;;1.87;100.00
10145;BME280;5113;41.822;23.564;2023-02-19T02:43:18;-10974.81;;;1.46;100.00
10145;BME280;5113;41.822;23.564;2023-02-19T02:46:31;-10989.25;;;1.98;100.00
10145;BME280;5113;41.822;23.564;2023-02-19T02:49:40;-10971.03;;;1.32;100.00
10145;BME280;5113;41.822;23.564;2023-02-19T02:53:09;-10981.41;;;1.70;100.00
10145;BME280;5113;41.822;23.564;2023-02-19T02:56:34;-10974.94;;;1.47;100.00
10145;BME280;5113;41.822;23.564;2023-02-19T02:59:43;-10973.81;;;1.43;100.00
10145;BME280;5113;41.822;23.564;2023-02-19T03:02:54;-10959.13;;;0.89;100.00
10145;BME280;5113;41.822;23.564;2023-02-19T03:06:04;-10968.50;;;1.23;100.00
10145;BME280;5113;41.822;23.564;2023-02-19T03:09:16;-10966.13;;;1.15;100.00
10145;BME280;5113;41.822;23.564;2023-02-19T03:12:26;-10952.09;;;0.64;100.00
10145;BME280;5113;41.822;23.564;2023-02-19T03:15:55;-10957.44;;;0.83;100.00
10145;BME280;5113;41.822;23.564;2023-02-19T03:19:22;-10970.75;;;1.31;100.00
10145;BME280;5113;41.822;23.564;2023-02-19T03:22:33;-10958.00;;;0.85;100.00
10145;BME280;5113;41.822;23.564;2023-02-19T03:25:42;-10971.16;;;1.33;100.00
10145;BME280;5113;41.822;23.564;2023-02-19T03:29:07;-10975.09;;;1.47;100.00
10145;BME280;5113;41.822;23.564;2023-02-19T03:32:33;-10976.78;;;1.53;100.00
10145;BME280;5113;41.822;23.564;2023-02-19T03:35:45;-10976.78;;;1.53;100.00
10145;BME280;5113;41.822;23.564;2023-02-19T03:38:57;-10973.81;;;1.43;100.00
10145;BME280;5113;41.822;23.564;2023-02-19T03:42:15;-10964.16;;;1.08;100.00
10145;BME280;5113;41.822;23.564;2023-02-19T03:45:31;-10974.09;;;1.44;100.00
10145;BME280;5113;41.822;23.564;2023-02-19T03:48:45;-10971.88;;;1.36;100.00
10145;BME280;5113;41.822;23.564;2023-02-19T03:52:00;-10975.78;;;1.50;100.00
10145;BME280;5113;41.822;23.564;2023-02-19T03:55:13;-10965.16;;;1.11;100.00
10145;BME280;5113;41.822;23.564;2023-02-19T03:58:25;-10957.72;;;0.84;100.00
10145;BME280;5113;41.822;23.564;2023-02-19T04:01:39;-10950.44;;;0.58;100.00
10145;BME280;5113;41.822;23.564;2023-02-19T04:04:49;-10953.78;;;0.70;100.00
10145;BME280;5113;41.822;23.564;2023-02-19T04:08:03;-10963.47;;;1.05;100.00
10145;BME280;5113;41.822;23.564;2023-02-19T04:11:13;-10963.59;;;1.06;100.00
10145;BME280;5113;41.822;23.564;2023-02-19T04:14:22;-10968.38;;;1.23;100.00
10145;BME280;5113;41.822;23.564;2023-02-19T04:17:32;-10974.66;;;1.46;100.00
10145;BME280;5113;41.822;23.564;2023-02-19T04:20:42;-10958.69;;;0.88;100.00
10145;BME280;5113;41.822;23.564;2023-02-19T04:23:51;-10971.03;;;1.32;100.00
10145;BME280;5113;41.822;23.564;2023-02-19T04:26:57;-10962.75;;;1.03;100.00
10145;BME280;5113;41.822;23.564;2023-02-19T04:30:06;-10951.13;;;0.60;100.00
10145;BME280;5113;41.822;23.564;2023-02-19T04:33:13;-10963.75;;;1.06;100.00
10145;BME280;5113;41.822;23.564;2023-02-19T04:36:19;-10972.00;;;1.36;100.00
10145;BME280;5113;41.822;23.564;2023-02-19T04:39:27;-10971.31;;;1.33;100.00
10145;BME280;5113;41.822;23.564;2023-02-19T04:42:34;-10971.59;;;1.35;100.00
10145;BME280;5113;41.822;23.564;2023-02-19T04:45:40;-10971.03;;;1.32;100.00
10145;BME280;5113;41.822;23.564;2023-02-19T04:48:47;-10971.31;;;1.33;100.00
10145;BME280;5113;41.822;23.564;2023-02-19T04:51:53;-10958.28;;;0.86;100.00
10145;BME280;5113;41.822;23.564;2023-02-19T04:55:01;-10961.62;;;0.98;100.00
10145;BME280;5113;41.822;23.564;2023-02-19T04:58:07;-10967.81;;;1.21;100.00
10145;BME280;5113;41.822;23.564;2023-02-19T05:01:13;-10958.00;;;0.85;100.00
10145;BME280;5113;41.822;23.564;2023-02-19T05:04:20;-10969.91;;;1.28;100.00
10145;BME280;5113;41.822;23.564;2023-02-19T05:07:26;-10968.50;;;1.23;100.00
10145;BME280;5113;41.822;23.564;2023-02-19T05:10:33;-10969.75;;;1.28;100.00
10145;BME280;5113;41.822;23.564;2023-02-19T05:13:39;-10958.69;;;0.88;100.00
10145;BME280;5113;41.822;23.564;2023-02-19T05:16:46;-10962.06;;;1.00;100.00
10145;BME280;5113;41.822;23.564;2023-02-19T05:19:53;-10966.41;;;1.16;100.00
10145;BME280;5113;41.822;23.564;2023-02-19T05:22:59;-10965.56;;;1.13;100.00
10145;BME280;5113;41.822;23.564;2023-02-19T05:26:10;-10967.09;;;1.18;100.00
10145;BME280;5113;41.822;23.564;2023-02-19T05:29:16;-10975.09;;;1.47;100.00
10145;BME280;5113;41.822;23.564;2023-02-19T05:32:23;-10972.44;;;1.38;100.00
10145;BME280;5113;41.822;23.564;2023-02-19T05:35:29;-10971.72;;;1.35;100.00
10145;BME280;5113;41.822;23.564;2023-02-19T05:38:36;-10945.94;;;0.42;100.00
10145;BME280;5113;41.822;23.564;2023-02-19T05:41:44;-10965.41;;;1.12;100.00
10145;BME280;5113;41.822;23.564;2023-02-19T05:44:50;-10973.81;;;1.43;100.00
10145;BME280;5113;41.822;23.564;2023-02-19T05:47:56;-10965.00;;;1.11;100.00
10145;BME280;5113;41.822;23.564;2023-02-19T05:51:04;-10978.03;;;1.58;100.00
10145;BME280;5113;41.822;23.564;2023-02-19T05:54:11;-10974.38;;;1.45;100.00
10145;BME280;5113;41.822;23.564;2023-02-19T05:57:19;-10977.47;;;1.56;100.00
10145;BME280;5113;41.822;23.564;2023-02-19T06:00:25;-10981.13;;;1.69;100.00
10145;BME280;5113;41.822;23.564;2023-02-19T06:03:32;-10987.28;;;1.91;100.00
10145;BME280;5113;41.822;23.564;2023-02-19T06:06:39;-10968.22;;;1.22;100.00
10145;BME280;5113;41.822;23.564;2023-02-19T06:09:45;-10972.44;;;1.38;100.00
10145;BME280;5113;41.822;23.564;2023-02-19T06:12:53;-10990.94;;;2.05;100.00
10145;BME280;5113;41.822;23.564;2023-02-19T06:16:02;-10987.00;;;1.90;100.00
10145;BME280;5113;41.822;23.564;2023-02-19T06:19:09;-10994.56;;;2.18;100.00
10145;BME280;5113;41.822;23.564;2023-02-19T06:22:15;-10991.50;;;2.07;100.00
10145;BME280;5113;41.822;23.564;2023-02-19T06:25:22;-10997.81;;;2.29;100.00
10145;BME280;5113;41.822;23.564;2023-02-19T06:28:30;-11007.75;;;2.65;100.00
10145;BME280;5113;41.822;23.564;2023-02-19T06:31:36;-11005.78;;;2.58;100.00
10145;BME280;5113;41.822;23.564;2023-02-19T06:34:43;-11009.28;;;2.71;100.00
10145;BME280;5113;41.822;23.564;2023-02-19T06:37:49;-11026.97;;;3.35;100.00
10145;BME280;5113;41.822;23.564;2023-02-19T06:40:59;-11020.38;;;3.11;100.00
10145;BME280;5113;41.822;23.564;2023-02-19T06:44:06;-11023.03;;;3.21;100.00
10145;BME280;5113;41.822;23.564;2023-02-19T06:47:13;-11024.59;;;3.26;100.00
10145;BME280;5113;41.822;23.564;2023-02-19T06:50:19;-11024.03;;;3.24;100.00
10145;BME280;5113;41.822;23.564;2023-02-19T06:53:25;-11029.50;;;3.44;100.00
10145;BME280;5113;41.822;23.564;2023-02-19T06:56:33;-11050.97;;;4.22;99.83
10145;BME280;5113;41.822;23.564;2023-02-19T06:59:41;-11059.81;;;4.54;97.49
10145;BME280;5113;41.822;23.564;2023-02-19T07:03:05;-11058.69;;;4.50;96.62
10145;BME280;5113;41.822;23.564;2023-02-19T07:06:12;-11062.75;;;4.64;97.38
10145;BME280;5113;41.822;23.564;2023-02-19T07:09:18;-11067.78;;;4.83;97.33
10145;BME280;5113;41.822;23.564;2023-02-19T07:12:24;-11071.88;;;4.97;96.52
10145;BME280;5113;41.822;23.564;2023-02-19T07:15:32;-11085.19;;;5.46;94.60
10145;BME280;5113;41.822;23.564;2023-02-19T07:18:39;-11091.53;;;5.69;91.72
10145;BME280;5113;41.822;23.564;2023-02-19T07:21:46;-11102.06;;;6.07;89.44
10145;BME280;5113;41.822;23.564;2023-02-19T07:24:52;-11105.56;;;6.19;89.18
10145;BME280;5113;41.822;23.564;2023-02-19T07:27:59;-11106.28;;;6.22;87.24
10145;BME280;5113;41.822;23.564;2023-02-19T07:31:07;-11117.22;;;6.61;86.20
10145;BME280;5113;41.822;23.564;2023-02-19T07:34:14;-11138.44;;;7.38;81.80
10145;BME280;5113;41.822;23.564;2023-02-19T07:37:20;-11147.13;;;7.70;78.15
10145;BME280;5113;41.822;23.564;2023-02-19T07:40:27;-11146.72;;;7.68;82.58
10145;BME280;5113;41.822;23.564;2023-02-19T07:43:35;-11167.25;;;8.42;77.98
10145;BME280;5113;41.822;23.564;2023-02-19T07:46:43;-11168.50;;;8.47;74.93
10145;BME280;5113;41.822;23.564;2023-02-19T07:49:50;-11181.56;;;8.94;73.01
10145;BME280;5113;41.822;23.564;2023-02-19T07:52:56;-11192.25;;;9.33;70.33
10145;BME280;5113;41.822;23.564;2023-02-19T07:56:05;-11204.06;;;9.75;67.01
10145;BME280;5113;41.822;23.564;2023-02-19T07:59:12;-11212.50;;;10.06;67.02
10145;BME280;5113;41.822;23.564;2023-02-19T08:02:21;-11205.06;;;9.79;66.08
10145;BME280;5113;41.822;23.564;2023-02-19T08:05:44;-11227.56;;;10.60;63.18
10145;BME280;5113;41.822;23.564;2023-02-19T08:08:50;-11212.78;;;10.07;62.09
10145;BME280;5113;41.822;23.564;2023-02-19T08:12:00;-11240.50;;;11.07;59.50
10145;BME280;5113;41.822;23.564;2023-02-19T08:15:24;-11238.94;;;11.01;58.13
10145;BME280;5113;41.822;23.564;2023-02-19T08:18:32;-11254.44;;;11.57;55.02
10145;BME280;5113;41.822;23.564;2023-02-19T08:21:38;-11258.38;;;11.71;54.13
10145;BME280;5113;41.822;23.564;2023-02-19T08:24:45;-11275.25;;;12.32;51.70
10145;BME280;5113;41.822;23.564;2023-02-19T08:27:51;-11283.41;;;12.62;51.16
10145;BME280;5113;41.822;23.564;2023-02-19T08:30:59;-11288.47;;;12.80;50.38
10145;BME280;5113;41.822;23.564;2023-02-19T08:34:07;-11289.63;;;12.84;50.44
10145;BME280;5113;41.822;23.564;2023-02-19T08:37:14;-11280.03;;;12.49;50.03
10145;BME280;5113;41.822;23.564;2023-02-19T08:40:20;-11292.44;;;12.94;49.55
10145;BME280;5113;41.822;23.564;2023-02-19T08:43:27;-11296.78;;;13.10;49.37
10145;BME280;5113;41.822;23.564;2023-02-19T08:46:34;-11304.53;;;13.38;48.47
10145;BME280;5113;41.822;23.564;2023-02-19T08:49:41;-11305.25;;;13.40;47.52
10145;BME280;5113;41.822;23.564;2023-02-19T08:52:48;-11305.94;;;13.43;47.56
10145;BME280;5113;41.822;23.564;2023-02-19T08:55:54;-11316.09;;;13.79;47.60
10145;BME280;5113;41.822;23.564;2023-02-19T08:59:01;-11308.91;;;13.53;47.42
10145;BME280;5113;41.822;23.564;2023-02-19T09:02:08;-11315.53;;;13.77;46.88
10145;BME280;5113;41.822;23.564;2023-02-19T09:05:18;-11325.09;;;14.12;46.63
10145;BME280;5113;41.822;23.564;2023-02-19T09:08:24;-11322.41;;;14.02;46.23
10145;BME280;5113;41.822;23.564;2023-02-19T09:11:30;-11321.84;;;14.00;45.63
10145;BME280;5113;41.822;23.564;2023-02-19T09:14:37;-11321.56;;;13.99;45.32
10145;BME280;5113;41.822;23.564;2023-02-19T09:17:43;-11327.63;;;14.21;45.86
10145;BME280;5113;41.822;23.564;2023-02-19T09:20:51;-11325.94;;;14.15;44.98
10145;BME280;5113;41.822;23.564;2023-02-19T09:23:57;-11337.22;;;14.56;43.99
10145;BME280;5113;41.822;23.564;2023-02-19T09:27:03;-11335.22;;;14.48;44.10
10145;BME280;5113;41.822;23.564;2023-02-19T09:30:10;-11334.94;;;14.47;43.43
10145;BME280;5113;41.822;23.564;2023-02-19T09:33:16;-11353.13;;;15.13;43.10
10145;BME280;5113;41.822;23.564;2023-02-19T09:36:24;-11343.13;;;14.77;43.53
10145;BME280;5113;41.822;23.564;2023-02-19T09:39:30;-11342.41;;;14.74;43.28
10145;BME280;5113;41.822;23.564;2023-02-19T09:42:39;-11348.75;;;14.97;43.11
10145;BME280;5113;41.822;23.564;2023-02-19T09:45:47;-11359.87;;;15.37;41.86
10145;BME280;5113;41.822;23.564;2023-02-19T09:48:57;-11373.56;;;15.87;41.76
10145;BME280;5113;41.822;23.564;2023-02-19T09:52:13;-11380.88;;;16.13;41.66
10145;BME280;5113;41.822;23.564;2023-02-19T09:55:29;-11373.41;;;15.86;42.00
10145;BME280;5113;41.822;23.564;2023-02-19T09:58:41;-11376.94;;;15.99;41.36
10145;BME280;5113;41.822;23.564;2023-02-19T10:01:54;-11387.06;;;16.35;40.54
10145;BME280;5113;41.822;23.564;2023-02-19T10:05:05;-11385.66;;;16.30;40.75
10145;BME280;5113;41.822;23.564;2023-02-19T10:08:19;-11383.41;;;16.22;40.82
10145;BME280;5113;41.822;23.564;2023-02-19T10:11:26;-11399.47;;;16.80;39.37
10145;BME280;5113;41.822;23.564;2023-02-19T10:14:34;-11403.72;;;16.95;38.26
10145;BME280;5113;41.822;23.564;2023-02-19T10:17:42;-11421.75;;;17.60;37.90
10145;BME280;5113;41.822;23.564;2023-02-19T10:20:49;-11413.00;;;17.29;37.57
10145;BME280;5113;41.822;23.564;2023-02-19T10:24:00;-11418.38;;;17.48;37.27
10145;BME280;5113;41.822;23.564;2023-02-19T10:27:11;-11416.81;;;17.42;36.54
10145;BME280;5113;41.822;23.564;2023-02-19T10:30:20;-11419.34;;;17.52;37.06
10145;BME280;5113;41.822;23.564;2023-02-19T10:33:27;-11427.94;;;17.83;36.93
10145;BME280;5113;41.822;23.564;2023-02-19T10:36:36;-11427.09;;;17.79;36.17
10145;BME280;5113;41.822;23.564;2023-02-19T10:39:46;-11433.31;;;18.02;35.69
10145;BME280;5113;41.822;23.564;2023-02-19T10:42:55;-11433.88;;;18.04;35.69
10145;BME280;5113;41.822;23.564;2023-02-19T10:46:05;-11425.41;;;17.73;36.32
10145;BME280;5113;41.822;23.564;2023-02-19T10:49:21;-11424.00;;;17.68;36.51
10145;BME280;5113;41.822;23.564;2023-02-19T10:52:30;-11434.16;;;18.05;36.32
10145;BME280;5113;41.822;23.564;2023-02-19T10:55:39;-11416.53;;;17.41;36.81
10145;BME280;5113;41.822;23.564;2023-02-19T10:58:45;-11436.13;;;18.12;36.27
10145;BME280;5113;41.822;23.564;2023-02-19T11:01:56;-11429.22;;;17.87;36.29
10145;BME280;5113;41.822;23.564;2023-02-19T11:05:17;-11424.28;;;17.69;36.54
10145;BME280;5113;41.822;23.564;2023-02-19T11:08:24;-11425.97;;;17.75;36.30
10145;BME280;5113;41.822;23.564;2023-02-19T11:11:34;-11420.19;;;17.55;36.24
10145;BME280;5113;41.822;23.564;2023-02-19T11:14:42;-11433.03;;;18.01;35.59
10145;BME280;5113;41.822;23.564;2023-02-19T11:18:01;-11438.53;;;18.21;35.60
10145;BME280;5113;41.822;23.564;2023-02-19T11:21:23;-11431.47;;;17.95;35.51
10145;BME280;5113;41.822;23.564;2023-02-19T11:24:33;-11433.59;;;18.03;35.27
10145;BME280;5113;41.822;23.564;2023-02-19T11:27:55;-11441.63;;;18.32;34.40
10145;BME280;5113;41.822;23.564;2023-02-19T11:31:13;-11451.50;;;18.67;34.33
10145;BME280;5113;41.822;23.564;2023-02-19T11:34:26;-11453.63;;;18.75;34.04
10145;BME280;5113;41.822;23.564;2023-02-19T11:37:34;-11454.47;;;18.78;33.84
10145;BME280;5113;41.822;23.564;2023-02-19T11:40:44;-11450.78;;;18.65;33.18
10145;BME280;5113;41.822;23.564;2023-02-19T11:44:10;-11466.88;;;19.23;33.31
10145;BME280;5113;41.822;23.564;2023-02-19T11:47:36;-11457.56;;;18.89;33.22
10145;BME280;5113;41.822;23.564;2023-02-19T11:50:55;-11465.16;;;19.17;33.58
10145;BME280;5113;41.822;23.564;2023-02-19T11:54:16;-11462.34;;;19.06;32.81
10145;BME280;5113;41.822;23.564;2023-02-19T11:57:34;-11466.59;;;19.22;32.82
10145;BME280;5113;41.822;23.564;2023-02-19T12:00:48;-11464.47;;;19.14;32.39
10145;BME280;5113;41.822;23.564;2023-02-19T12:04:20;-11469.13;;;19.31;32.51
10145;BME280;5113;41.822;23.564;2023-02-19T12:11:23;-11477.59;;;19.61;32.84
10145;BME280;5113;41.822;23.564;2023-02-19T12:14:52;-11470.25;;;19.35;32.48
10145;BME280;5113;41.822;23.564;2023-02-19T12:18:25;-11468.56;;;19.29;32.05
10145;BME280;5113;41.822;23.564;2023-02-19T12:21:45;-11469.41;;;19.32;32.32
10145;BME280;5113;41.822;23.564;2023-02-19T12:25:16;-11474.34;;;19.50;32.60
10145;BME280;5113;41.822;23.564;2023-02-19T12:28:45;-11472.38;;;19.42;32.49
10145;BME280;5113;41.822;23.564;2023-02-19T12:32:30;-11467.72;;;19.26;32.06
10145;BME280;5113;41.822;23.564;2023-02-19T12:35:55;-11471.94;;;19.41;32.00
10145;BME280;5113;41.822;23.564;2023-02-19T12:39:09;-11474.06;;;19.49;31.98
10145;BME280;5113;41.822;23.564;2023-02-19T12:42:30;-11468.69;;;19.29;32.23
10145;BME280;5113;41.822;23.564;2023-02-19T12:45:46;-11463.19;;;19.09;32.39
10145;BME280;5113;41.822;23.564;2023-02-19T12:48:57;-11468.97;;;19.30;31.90
10145;BME280;5113;41.822;23.564;2023-02-19T12:52:11;-11481.53;;;19.75;31.54
10145;BME280;5113;41.822;23.564;2023-02-19T12:55:24;-11478.72;;;19.65;31.66
10145;BME280;5113;41.822;23.564;2023-02-19T12:58:41;-11486.03;;;19.92;31.72
10145;BME280;5113;41.822;23.564;2023-02-19T13:01:51;-11471.66;;;19.40;32.07
10145;BME280;5113;41.822;23.564;2023-02-19T13:05:04;-11478.44;;;19.64;31.79
10145;BME280;5113;41.822;23.564;2023-02-19T13:08:21;-11485.47;;;19.90;31.59
10145;BME280;5113;41.822;23.564;2023-02-19T13:11:32;-11473.06;;;19.45;31.69
10145;BME280;5113;41.822;23.564;2023-02-19T13:14:44;-11471.81;;;19.40;31.93
10145;BME280;5113;41.822;23.564;2023-02-19T13:17:54;-11481.81;;;19.76;31.85
10145;BME280;5113;41.822;23.564;2023-02-19T13:21:05;-11485.06;;;19.88;31.96
10145;BME280;5113;41.822;23.564;2023-02-19T13:24:20;-11478.44;;;19.64;32.31
10145;BME280;5113;41.822;23.564;2023-02-19T13:27:47;-11476.03;;;19.56;32.20
10145;BME280;5113;41.822;23.564;2023-02-19T13:31:12;-11496.19;;;20.28;31.89
10145;BME280;5113;41.822;23.564;2023-02-19T13:34:43;-11482.66;;;19.79;31.80
10145;BME280;5113;41.822;23.564;2023-02-19T13:37:53;-11484.06;;;19.85;31.73
10145;BME280;5113;41.822;23.564;2023-02-19T13:41:01;-11494.09;;;20.21;31.58
10145;BME280;5113;41.822;23.564;2023-02-19T13:44:16;-11498.59;;;20.37;31.77
10145;BME280;5113;41.822;23.564;2023-02-19T13:47:46;-11491.81;;;20.13;32.00
10145;BME280;5113;41.822;23.564;2023-02-19T13:54:33;-11515.38;;;20.97;32.28
10145;BME280;5113;41.822;23.564;2023-02-19T13:57:45;-11503.53;;;20.55;31.92
10145;BME280;5113;41.822;23.564;2023-02-19T14:00:51;-11498.31;;;20.36;31.73
10145;BME280;5113;41.822;23.564;2023-02-19T14:04:07;-11486.59;;;19.94;31.57
10145;BME280;5113;41.822;23.564;2023-02-19T14:07:50;-11505.22;;;20.61;31.73
10145;BME280;5113;41.822;23.564;2023-02-19T14:10:57;-11516.66;;;21.02;32.30
10145;BME280;5113;41.822;23.564;2023-02-19T14:14:26;-11518.50;;;21.08;32.09
10145;BME280;5113;41.822;23.564;2023-02-19T14:17:38;-11508.34;;;20.72;32.66
10145;BME280;5113;41.822;23.564;2023-02-19T14:20:45;-11498.75;;;20.37;32.80
10145;BME280;5113;41.822;23.564;2023-02-19T14:23:52;-11479.28;;;19.67;33.35
10145;BME280;5113;41.822;23.564;2023-02-19T14:27:00;-11456.28;;;18.85;34.66
10145;BME280;5113;41.822;23.564;2023-02-19T14:30:10;-11439.94;;;18.26;35.40
10145;BME280;5113;41.822;23.564;2023-02-19T14:33:21;-11440.50;;;18.28;35.11
10145;BME280;5113;41.822;23.564;2023-02-19T14:36:33;-11444.31;;;18.41;35.12
10145;BME280;5113;41.822;23.564;2023-02-19T14:39:43;-11458.81;;;18.94;34.63
10145;BME280;5113;41.822;23.564;2023-02-19T14:42:50;-11452.75;;;18.72;35.35
10145;BME280;5113;41.822;23.564;2023-02-19T14:46:07;-11440.91;;;18.29;36.10
10145;BME280;5113;41.822;23.564;2023-02-19T14:49:24;-11431.06;;;17.94;36.92
10145;BME280;5113;41.822;23.564;2023-02-19T14:52:36;-11420.34;;;17.55;37.43
10145;BME280;5113;41.822;23.564;2023-02-19T14:55:45;-11403.56;;;16.95;38.77
10145;BME280;5113;41.822;23.564;2023-02-19T14:59:07;-11388.63;;;16.41;39.14
10145;BME280;5113;41.822;23.564;2023-02-19T15:02:24;-11389.19;;;16.43;39.23
10145;BME280;5113;41.822;23.564;2023-02-19T15:05:32;-11378.19;;;16.03;40.06
10145;BME280;5113;41.822;23.564;2023-02-19T15:08:44;-11380.47;;;16.11;40.27
10145;BME280;5113;41.822;23.564;2023-02-19T15:11:52;-11373.56;;;15.87;40.22
10145;BME280;5113;41.822;23.564;2023-02-19T15:15:02;-11368.75;;;15.69;40.69
10145;BME280;5113;41.822;23.564;2023-02-19T15:18:17;-11363.69;;;15.51;41.10
10145;BME280;5113;41.822;23.564;2023-02-19T15:21:26;-11353.81;;;15.15;41.92
10145;BME280;5113;41.822;23.564;2023-02-19T15:24:33;-11347.22;;;14.92;42.10
10145;BME280;5113;41.822;23.564;2023-02-19T15:27:39;-11346.22;;;14.88;42.42
10145;BME280;5113;41.822;23.564;2023-02-19T15:30:46;-11342.00;;;14.73;42.25
10145;BME280;5113;41.822;23.564;2023-02-19T15:33:54;-11332.13;;;14.37;43.30
10145;BME280;5113;41.822;23.564;2023-02-19T15:37:03;-11338.06;;;14.59;44.01
10145;BME280;5113;41.822;23.564;2023-02-19T15:40:13;-11328.19;;;14.23;43.53
10145;BME280;5113;41.822;23.564;2023-02-19T15:43:23;-11317.06;;;13.83;43.99
10145;BME280;5113;41.822;23.564;2023-02-19T15:46:30;-11316.38;;;13.80;44.33
10145;BME280;5113;41.822;23.564;2023-02-19T15:49:45;-11306.66;;;13.45;44.39
10145;BME280;5113;41.822;23.564;2023-02-19T15:52:57;-11303.97;;;13.36;45.11
10145;BME280;5113;41.822;23.564;2023-02-19T15:56:08;-11298.63;;;13.16;45.23
10145;BME280;5113;41.822;23.564;2023-02-19T15:59:21;-11289.19;;;12.82;46.37
10145;BME280;5113;41.822;23.564;2023-02-19T16:02:30;-11283.69;;;12.63;46.47
10145;BME280;5113;41.822;23.564;2023-02-19T16:05:39;-11279.19;;;12.46;46.96
10145;BME280;5113;41.822;23.564;2023-02-19T16:08:57;-11274.12;;;12.28;47.35
10145;BME280;5113;41.822;23.564;2023-02-19T16:12:19;-11271.59;;;12.19;47.87
10145;BME280;5113;41.822;23.564;2023-02-19T16:15:27;-11245.28;;;11.24;51.95
10145;BME280;5113;41.822;23.564;2023-02-19T16:18:34;-11241.47;;;11.10;52.06
10145;BME280;5113;41.822;23.564;2023-02-19T16:21:42;-11233.31;;;10.81;53.45
10145;BME280;5113;41.822;23.564;2023-02-19T16:24:50;-11224.47;;;10.49;54.32
10145;BME280;5113;41.822;23.564;2023-02-19T16:27:58;-11220.53;;;10.35;55.08
10145;BME280;5113;41.822;23.564;2023-02-19T16:31:06;-11220.25;;;10.34;56.15
10145;BME280;5113;41.822;23.564;2023-02-19T16:34:17;-11212.94;;;10.07;57.56
10145;BME280;5113;41.822;23.564;2023-02-19T16:37:34;-11211.94;;;10.04;57.02
10145;BME280;5113;41.822;23.564;2023-02-19T16:41:10;-11215.59;;;10.17;57.18
10145;BME280;5113;41.822;23.564;2023-02-19T16:44:29;-11206.19;;;9.83;58.23
10145;BME280;5113;41.822;23.564;2023-02-19T16:47:37;-11204.91;;;9.78;58.65
10145;BME280;5113;41.822;23.564;2023-02-19T16:50:45;-11212.50;;;10.06;57.33